sensor_id;sensor_type;location;lat;lon;timestamp;P1;durP1;ratioP1;P2;durP2;ratioP2
21822;SDS011;11074;48.596;9.238;2022-07-29T00:00:43;10.27;;;8.15;;
21822;SDS011;11074;48.596;9.238;2022-07-29T00:03:09;12.15;;;8.63;;
21822;SDS011;11074;48.596;9.238;2022-07-29T00:05:38;11.85;;;8.50;;
21822;SDS011;11074;48.596;9.238;2022-07-29T00:08:05;9.38;;;8.38;;
21822;SDS011;11074;48.596;9.238;2022-07-29T00:10:32;12.77;;;9.52;;
21822;SDS011;11074;48.596;9.238;2022-07-29T00:12:58;9.75;;;8.75;;
21822;SDS011;11074;48.596;9.238;2022-07-29T00:15:24;8.95;;;8.02;;
21822;SDS011;11074;48.596;9.238;2022-07-29T00:17:50;9.50;;;8.13;;
21822;SDS011;11074;48.596;9.238;2022-07-29T00:20:15;10.38;;;8.10;;
21822;SDS011;11074;48.596;9.238;2022-07-29T00:22:41;8.82;;;7.93;;
21822;SDS011;11074;48.596;9.238;2022-07-29T00:25:07;8.75;;;7.85;;
21822;SDS011;11074;48.596;9.238;2022-07-29T00:27:33;9.23;;;8.10;;
21822;SDS011;11074;48.596;9.238;2022-07-29T00:30:00;9.13;;;7.82;;
21822;SDS011;11074;48.596;9.238;2022-07-29T00:32:27;8.88;;;7.18;;
21822;SDS011;11074;48.596;9.238;2022-07-29T00:34:52;8.02;;;7.18;;
21822;SDS011;11074;48.596;9.238;2022-07-29T00:37:36;10.95;;;7.47;;
21822;SDS011;11074;48.596;9.238;2022-07-29T00:40:02;11.40;;;7.20;;
21822;SDS011;11074;48.596;9.238;2022-07-29T00:42:29;8.85;;;7.25;;
21822;SDS011;11074;48.596;9.238;2022-07-29T00:44:54;8.32;;;7.53;;
21822;SDS011;11074;48.596;9.238;2022-07-29T00:47:20;9.70;;;8.40;;
21822;SDS011;11074;48.596;9.238;2022-07-29T00:49:46;8.10;;;7.30;;
21822;SDS011;11074;48.596;9.238;2022-07-29T00:52:12;8.27;;;7.13;;
21822;SDS011;11074;48.596;9.238;2022-07-29T00:54:39;9.20;;;7.55;;
21822;SDS011;11074;48.596;9.238;2022-07-29T00:57:05;7.50;;;6.70;;
21822;SDS011;11074;48.596;9.238;2022-07-29T00:59:32;9.82;;;6.95;;
21822;SDS011;11074;48.596;9.238;2022-07-29T01:01:59;7.50;;;6.75;;
21822;SDS011;11074;48.596;9.238;2022-07-29T01:04:24;9.38;;;6.82;;
21822;SDS011;11074;48.596;9.238;2022-07-29T01:06:51;7.43;;;6.72;;
21822;SDS011;11074;48.596;9.238;2022-07-29T01:09:19;9.18;;;8.27;;
21822;SDS011;11074;48.596;9.238;2022-07-29T01:11:46;7.53;;;6.80;;
21822;SDS011;11074;48.596;9.238;2022-07-29T01:14:13;8.02;;;6.90;;
21822;SDS011;11074;48.596;9.238;2022-07-29T01:17:26;8.43;;;6.85;;
21822;SDS011;11074;48.596;9.238;2022-07-29T01:19:45;10.38;;;6.78;;
21822;SDS011;11074;48.596;9.238;2022-07-29T01:25:58;7.07;;;6.47;;
21822;SDS011;11074;48.596;9.238;2022-07-29T01:34:52;6.40;;;5.50;;
21822;SDS011;11074;48.596;9.238;2022-07-29T01:37:26;6.93;;;5.53;;
21822;SDS011;11074;48.596;9.238;2022-07-29T01:40:03;8.48;;;5.80;;
21822;SDS011;11074;48.596;9.238;2022-07-29T01:42:38;8.63;;;6.55;;
21822;SDS011;11074;48.596;9.238;2022-07-29T01:48:10;6.60;;;5.95;;
21822;SDS011;11074;48.596;9.238;2022-07-29T01:50:47;6.75;;;6.05;;
21822;SDS011;11074;48.596;9.238;2022-07-29T01:53:28;8.05;;;6.03;;
21822;SDS011;11074;48.596;9.238;2022-07-29T01:56:00;8.48;;;5.70;;
21822;SDS011;11074;48.596;9.238;2022-07-29T01:58:28;9.43;;;6.00;;
21822;SDS011;11074;48.596;9.238;2022-07-29T02:00:57;7.32;;;6.15;;
21822;SDS011;11074;48.596;9.238;2022-07-29T02:03:25;5.97;;;5.38;;
21822;SDS011;11074;48.596;9.238;2022-07-29T02:05:52;8.38;;;6.22;;
21822;SDS011;11074;48.596;9.238;2022-07-29T02:08:21;6.28;;;5.57;;
21822;SDS011;11074;48.596;9.238;2022-07-29T02:10:49;5.68;;;5.07;;
21822;SDS011;11074;48.596;9.238;2022-07-29T02:13:18;9.52;;;6.15;;
21822;SDS011;11074;48.596;9.238;2022-07-29T02:15:49;7.32;;;5.78;;
21822;SDS011;11074;48.596;9.238;2022-07-29T02:18:18;7.75;;;5.70;;
21822;SDS011;11074;48.596;9.238;2022-07-29T02:20:49;6.07;;;5.47;;
21822;SDS011;11074;48.596;9.238;2022-07-29T02:23:19;6.25;;;5.28;;
21822;SDS011;11074;48.596;9.238;2022-07-29T02:25:48;5.72;;;5.18;;
21822;SDS011;11074;48.596;9.238;2022-07-29T02:28:18;9.30;;;5.82;;
21822;SDS011;11074;48.596;9.238;2022-07-29T02:30:47;6.30;;;5.60;;
21822;SDS011;11074;48.596;9.238;2022-07-29T02:33:17;9.00;;;5.53;;
21822;SDS011;11074;48.596;9.238;2022-07-29T02:35:47;7.45;;;6.50;;
21822;SDS011;11074;48.596;9.238;2022-07-29T02:38:15;9.18;;;6.13;;
21822;SDS011;11074;48.596;9.238;2022-07-29T02:41:03;6.57;;;5.53;;
21822;SDS011;11074;48.596;9.238;2022-07-29T02:43:48;7.22;;;5.18;;
21822;SDS011;11074;48.596;9.238;2022-07-29T02:46:22;6.63;;;5.55;;
21822;SDS011;11074;48.596;9.238;2022-07-29T02:52:00;7.32;;;5.95;;
21822;SDS011;11074;48.596;9.238;2022-07-29T02:54:40;7.45;;;6.03;;
21822;SDS011;11074;48.596;9.238;2022-07-29T02:57:24;7.22;;;6.30;;
21822;SDS011;11074;48.596;9.238;2022-07-29T03:00:19;6.88;;;6.18;;
21822;SDS011;11074;48.596;9.238;2022-07-29T03:02:52;8.00;;;6.93;;
21822;SDS011;11074;48.596;9.238;2022-07-29T03:05:21;10.02;;;6.82;;
21822;SDS011;11074;48.596;9.238;2022-07-29T03:07:56;7.60;;;6.22;;
21822;SDS011;11074;48.596;9.238;2022-07-29T03:10:27;6.35;;;5.57;;
21822;SDS011;11074;48.596;9.238;2022-07-29T03:12:54;10.32;;;6.35;;
21822;SDS011;11074;48.596;9.238;2022-07-29T03:15:21;5.85;;;5.25;;
21822;SDS011;11074;48.596;9.238;2022-07-29T03:17:48;7.22;;;5.82;;
21822;SDS011;11074;48.596;9.238;2022-07-29T03:20:15;6.15;;;5.18;;
21822;SDS011;11074;48.596;9.238;2022-07-29T03:22:41;6.45;;;5.70;;
21822;SDS011;11074;48.596;9.238;2022-07-29T03:25:09;8.15;;;5.80;;
21822;SDS011;11074;48.596;9.238;2022-07-29T03:27:36;6.15;;;5.55;;
21822;SDS011;11074;48.596;9.238;2022-07-29T03:30:02;7.75;;;6.45;;
21822;SDS011;11074;48.596;9.238;2022-07-29T03:32:29;8.90;;;6.75;;
21822;SDS011;11074;48.596;9.238;2022-07-29T03:34:55;9.48;;;7.25;;
21822;SDS011;11074;48.596;9.238;2022-07-29T03:37:21;8.93;;;7.72;;
21822;SDS011;11074;48.596;9.238;2022-07-29T03:39:46;15.27;;;7.38;;
21822;SDS011;11074;48.596;9.238;2022-07-29T03:42:15;9.02;;;7.15;;
21822;SDS011;11074;48.596;9.238;2022-07-29T03:44:46;11.73;;;7.28;;
21822;SDS011;11074;48.596;9.238;2022-07-29T03:47:15;9.57;;;8.20;;
21822;SDS011;11074;48.596;9.238;2022-07-29T03:49:47;10.10;;;7.53;;
21822;SDS011;11074;48.596;9.238;2022-07-29T03:52:16;8.80;;;7.20;;
21822;SDS011;11074;48.596;9.238;2022-07-29T03:54:42;8.93;;;7.05;;
21822;SDS011;11074;48.596;9.238;2022-07-29T03:57:08;9.50;;;7.20;;
21822;SDS011;11074;48.596;9.238;2022-07-29T03:59:36;9.48;;;6.65;;
21822;SDS011;11074;48.596;9.238;2022-07-29T04:02:04;7.80;;;7.00;;
21822;SDS011;11074;48.596;9.238;2022-07-29T04:04:34;7.47;;;6.63;;
21822;SDS011;11074;48.596;9.238;2022-07-29T04:07:01;7.18;;;6.47;;
21822;SDS011;11074;48.596;9.238;2022-07-29T04:09:26;8.95;;;6.40;;
21822;SDS011;11074;48.596;9.238;2022-07-29T04:11:52;8.63;;;6.78;;
21822;SDS011;11074;48.596;9.238;2022-07-29T04:14:18;10.27;;;7.30;;
21822;SDS011;11074;48.596;9.238;2022-07-29T04:16:44;8.35;;;6.93;;
21822;SDS011;11074;48.596;9.238;2022-07-29T04:19:09;9.95;;;6.45;;
21822;SDS011;11074;48.596;9.238;2022-07-29T04:21:38;10.10;;;6.97;;
21822;SDS011;11074;48.596;9.238;2022-07-29T04:24:06;8.50;;;7.15;;
21822;SDS011;11074;48.596;9.238;2022-07-29T04:26:33;8.52;;;7.65;;
21822;SDS011;11074;48.596;9.238;2022-07-29T04:28:59;7.88;;;6.68;;
21822;SDS011;11074;48.596;9.238;2022-07-29T04:31:25;9.15;;;6.97;;
21822;SDS011;11074;48.596;9.238;2022-07-29T04:33:51;8.68;;;6.72;;
21822;SDS011;11074;48.596;9.238;2022-07-29T04:36:17;8.07;;;7.25;;
21822;SDS011;11074;48.596;9.238;2022-07-29T04:38:42;8.45;;;6.43;;
21822;SDS011;11074;48.596;9.238;2022-07-29T04:41:08;10.13;;;7.88;;
21822;SDS011;11074;48.596;9.238;2022-07-29T04:43:34;8.98;;;7.80;;
21822;SDS011;11074;48.596;9.238;2022-07-29T04:46:01;10.05;;;7.68;;
21822;SDS011;11074;48.596;9.238;2022-07-29T04:48:29;11.27;;;8.15;;
21822;SDS011;11074;48.596;9.238;2022-07-29T04:50:56;9.55;;;8.05;;
21822;SDS011;11074;48.596;9.238;2022-07-29T04:53:21;9.48;;;7.53;;
21822;SDS011;11074;48.596;9.238;2022-07-29T04:55:47;9.73;;;8.25;;
21822;SDS011;11074;48.596;9.238;2022-07-29T04:58:13;9.15;;;7.30;;
21822;SDS011;11074;48.596;9.238;2022-07-29T05:00:39;8.73;;;7.75;;
21822;SDS011;11074;48.596;9.238;2022-07-29T05:03:05;8.57;;;7.78;;
21822;SDS011;11074;48.596;9.238;2022-07-29T05:05:31;8.48;;;7.65;;
21822;SDS011;11074;48.596;9.238;2022-07-29T05:07:57;12.65;;;9.90;;
21822;SDS011;11074;48.596;9.238;2022-07-29T05:10:23;10.60;;;9.45;;
21822;SDS011;11074;48.596;9.238;2022-07-29T05:12:49;10.07;;;9.02;;
21822;SDS011;11074;48.596;9.238;2022-07-29T05:15:15;9.75;;;7.65;;
21822;SDS011;11074;48.596;9.238;2022-07-29T05:17:42;9.25;;;7.90;;
21822;SDS011;11074;48.596;9.238;2022-07-29T05:20:09;9.38;;;8.40;;
21822;SDS011;11074;48.596;9.238;2022-07-29T05:22:35;9.90;;;8.00;;
21822;SDS011;11074;48.596;9.238;2022-07-29T05:25:00;9.27;;;8.38;;
21822;SDS011;11074;48.596;9.238;2022-07-29T05:27:27;10.93;;;8.93;;
21822;SDS011;11074;48.596;9.238;2022-07-29T05:29:52;10.32;;;9.20;;
21822;SDS011;11074;48.596;9.238;2022-07-29T05:32:18;9.45;;;8.45;;
21822;SDS011;11074;48.596;9.238;2022-07-29T05:34:44;10.32;;;9.32;;
21822;SDS011;11074;48.596;9.238;2022-07-29T05:37:09;9.60;;;8.70;;
21822;SDS011;11074;48.596;9.238;2022-07-29T05:39:35;10.55;;;8.85;;
21822;SDS011;11074;48.596;9.238;2022-07-29T05:42:01;10.82;;;8.55;;
21822;SDS011;11074;48.596;9.238;2022-07-29T05:44:27;10.63;;;9.13;;
21822;SDS011;11074;48.596;9.238;2022-07-29T05:46:53;10.48;;;9.48;;
21822;SDS011;11074;48.596;9.238;2022-07-29T05:49:18;10.70;;;9.60;;
21822;SDS011;11074;48.596;9.238;2022-07-29T05:51:44;10.50;;;8.95;;
21822;SDS011;11074;48.596;9.238;2022-07-29T05:54:10;9.85;;;8.88;;
21822;SDS011;11074;48.596;9.238;2022-07-29T05:56:36;8.93;;;8.02;;
21822;SDS011;11074;48.596;9.238;2022-07-29T05:59:02;8.93;;;7.80;;
21822;SDS011;11074;48.596;9.238;2022-07-29T06:01:28;11.68;;;8.68;;
21822;SDS011;11074;48.596;9.238;2022-07-29T06:03:54;8.93;;;8.02;;
21822;SDS011;11074;48.596;9.238;2022-07-29T06:06:19;8.70;;;7.90;;
21822;SDS011;11074;48.596;9.238;2022-07-29T06:08:45;10.38;;;8.20;;
21822;SDS011;11074;48.596;9.238;2022-07-29T06:11:11;9.05;;;8.15;;
21822;SDS011;11074;48.596;9.238;2022-07-29T06:13:36;9.60;;;8.70;;
21822;SDS011;11074;48.596;9.238;2022-07-29T06:16:02;9.27;;;8.38;;
21822;SDS011;11074;48.596;9.238;2022-07-29T06:18:29;9.98;;;8.98;;
21822;SDS011;11074;48.596;9.238;2022-07-29T06:20:54;9.13;;;8.23;;
21822;SDS011;11074;48.596;9.238;2022-07-29T06:23:20;8.93;;;8.02;;
21822;SDS011;11074;48.596;9.238;2022-07-29T06:25:46;8.43;;;7.45;;
21822;SDS011;11074;48.596;9.238;2022-07-29T06:28:12;8.63;;;7.00;;
21822;SDS011;11074;48.596;9.238;2022-07-29T06:30:38;9.07;;;8.20;;
21822;SDS011;11074;48.596;9.238;2022-07-29T06:33:04;8.02;;;6.85;;
21822;SDS011;11074;48.596;9.238;2022-07-29T06:35:30;7.28;;;6.57;;
21822;SDS011;11074;48.596;9.238;2022-07-29T06:37:59;8.27;;;6.63;;
21822;SDS011;11074;48.596;9.238;2022-07-29T06:40:26;7.50;;;6.13;;
21822;SDS011;11074;48.596;9.238;2022-07-29T06:43:10;7.05;;;6.35;;
21822;SDS011;11074;48.596;9.238;2022-07-29T06:45:35;7.03;;;5.88;;
21822;SDS011;11074;48.596;9.238;2022-07-29T06:48:01;7.38;;;5.63;;
21822;SDS011;11074;48.596;9.238;2022-07-29T06:50:27;5.95;;;5.35;;
21822;SDS011;11074;48.596;9.238;2022-07-29T06:52:53;5.78;;;5.18;;
21822;SDS011;11074;48.596;9.238;2022-07-29T06:55:18;6.30;;;4.70;;
21822;SDS011;11074;48.596;9.238;2022-07-29T06:57:45;4.78;;;4.18;;
21822;SDS011;11074;48.596;9.238;2022-07-29T07:00:11;5.13;;;4.22;;
21822;SDS011;11074;48.596;9.238;2022-07-29T07:02:38;5.60;;;4.07;;
21822;SDS011;11074;48.596;9.238;2022-07-29T07:05:03;5.35;;;4.00;;
21822;SDS011;11074;48.596;9.238;2022-07-29T07:07:30;5.25;;;3.97;;
21822;SDS011;11074;48.596;9.238;2022-07-29T07:09:56;5.97;;;3.83;;
21822;SDS011;11074;48.596;9.238;2022-07-29T07:12:22;4.28;;;3.78;;
21822;SDS011;11074;48.596;9.238;2022-07-29T07:14:48;11.07;;;4.03;;
21822;SDS011;11074;48.596;9.238;2022-07-29T07:17:13;5.50;;;3.70;;
21822;SDS011;11074;48.596;9.238;2022-07-29T07:19:39;4.22;;;3.45;;
21822;SDS011;11074;48.596;9.238;2022-07-29T07:22:05;5.65;;;4.15;;
21822;SDS011;11074;48.596;9.238;2022-07-29T07:24:30;4.50;;;3.90;;
21822;SDS011;11074;48.596;9.238;2022-07-29T07:26:56;4.65;;;3.80;;
21822;SDS011;11074;48.596;9.238;2022-07-29T07:29:22;5.07;;;3.45;;
21822;SDS011;11074;48.596;9.238;2022-07-29T07:31:47;5.82;;;3.90;;
21822;SDS011;11074;48.596;9.238;2022-07-29T07:34:13;5.65;;;4.05;;
21822;SDS011;11074;48.596;9.238;2022-07-29T07:36:39;5.25;;;3.50;;
21822;SDS011;11074;48.596;9.238;2022-07-29T07:39:04;3.67;;;3.35;;
21822;SDS011;11074;48.596;9.238;2022-07-29T07:41:30;5.20;;;3.58;;
21822;SDS011;11074;48.596;9.238;2022-07-29T07:43:56;6.53;;;3.88;;
21822;SDS011;11074;48.596;9.238;2022-07-29T07:46:22;4.50;;;3.30;;
21822;SDS011;11074;48.596;9.238;2022-07-29T07:48:47;6.53;;;3.45;;
21822;SDS011;11074;48.596;9.238;2022-07-29T07:51:13;4.75;;;3.20;;
21822;SDS011;11074;48.596;9.238;2022-07-29T07:53:39;5.65;;;3.47;;
21822;SDS011;11074;48.596;9.238;2022-07-29T07:56:05;4.15;;;3.20;;
21822;SDS011;11074;48.596;9.238;2022-07-29T07:58:31;5.05;;;3.15;;
21822;SDS011;11074;48.596;9.238;2022-07-29T08:00:57;5.85;;;3.35;;
21822;SDS011;11074;48.596;9.238;2022-07-29T08:03:23;5.70;;;3.55;;
21822;SDS011;11074;48.596;9.238;2022-07-29T08:05:49;4.85;;;3.42;;
21822;SDS011;11074;48.596;9.238;2022-07-29T08:08:16;4.20;;;3.60;;
21822;SDS011;11074;48.596;9.238;2022-07-29T08:10:42;5.18;;;4.03;;
21822;SDS011;11074;48.596;9.238;2022-07-29T08:13:17;6.15;;;4.10;;
21822;SDS011;11074;48.596;9.238;2022-07-29T08:15:46;5.97;;;3.72;;
21822;SDS011;11074;48.596;9.238;2022-07-29T08:18:12;5.75;;;4.00;;
21822;SDS011;11074;48.596;9.238;2022-07-29T08:20:38;4.80;;;3.72;;
21822;SDS011;11074;48.596;9.238;2022-07-29T08:23:05;5.35;;;3.70;;
21822;SDS011;11074;48.596;9.238;2022-07-29T08:25:34;4.38;;;3.97;;
21822;SDS011;11074;48.596;9.238;2022-07-29T08:28:03;5.07;;;3.60;;
21822;SDS011;11074;48.596;9.238;2022-07-29T08:30:30;5.00;;;3.78;;
21822;SDS011;11074;48.596;9.238;2022-07-29T08:32:57;5.40;;;4.07;;
21822;SDS011;11074;48.596;9.238;2022-07-29T08:35:23;4.80;;;3.47;;
21822;SDS011;11074;48.596;9.238;2022-07-29T08:37:50;6.13;;;3.38;;
21822;SDS011;11074;48.596;9.238;2022-07-29T08:40:16;5.05;;;4.28;;
21822;SDS011;11074;48.596;9.238;2022-07-29T08:42:43;5.50;;;4.05;;
21822;SDS011;11074;48.596;9.238;2022-07-29T08:45:09;6.22;;;4.00;;
21822;SDS011;11074;48.596;9.238;2022-07-29T08:47:35;5.78;;;4.20;;
21822;SDS011;11074;48.596;9.238;2022-07-29T08:50:05;6.15;;;4.32;;
21822;SDS011;11074;48.596;9.238;2022-07-29T08:52:32;4.38;;;3.67;;
21822;SDS011;11074;48.596;9.238;2022-07-29T08:55:03;6.32;;;4.15;;
21822;SDS011;11074;48.596;9.238;2022-07-29T08:57:32;4.50;;;4.07;;
21822;SDS011;11074;48.596;9.238;2022-07-29T09:00:00;6.88;;;4.00;;
21822;SDS011;11074;48.596;9.238;2022-07-29T09:02:36;5.80;;;3.72;;
21822;SDS011;11074;48.596;9.238;2022-07-29T09:05:06;5.18;;;4.07;;
21822;SDS011;11074;48.596;9.238;2022-07-29T09:07:33;6.03;;;4.18;;
21822;SDS011;11074;48.596;9.238;2022-07-29T09:09:59;7.40;;;4.28;;
21822;SDS011;11074;48.596;9.238;2022-07-29T09:12:25;6.97;;;4.15;;
21822;SDS011;11074;48.596;9.238;2022-07-29T09:14:51;4.97;;;3.92;;
21822;SDS011;11074;48.596;9.238;2022-07-29T09:17:17;6.57;;;4.00;;
21822;SDS011;11074;48.596;9.238;2022-07-29T09:20:24;8.18;;;4.03;;
21822;SDS011;11074;48.596;9.238;2022-07-29T09:22:50;5.97;;;3.80;;
21822;SDS011;11074;48.596;9.238;2022-07-29T09:25:37;6.13;;;4.45;;
21822;SDS011;11074;48.596;9.238;2022-07-29T09:28:10;4.43;;;3.97;;
21822;SDS011;11074;48.596;9.238;2022-07-29T09:30:50;5.70;;;3.38;;
21822;SDS011;11074;48.596;9.238;2022-07-29T09:33:19;5.38;;;3.70;;
21822;SDS011;11074;48.596;9.238;2022-07-29T09:35:57;3.35;;;3.00;;
21822;SDS011;11074;48.596;9.238;2022-07-29T09:38:29;8.18;;;3.92;;
21822;SDS011;11074;48.596;9.238;2022-07-29T09:40:59;5.85;;;3.85;;
21822;SDS011;11074;48.596;9.238;2022-07-29T09:43:27;6.63;;;4.18;;
21822;SDS011;11074;48.596;9.238;2022-07-29T09:45:53;4.38;;;3.85;;
21822;SDS011;11074;48.596;9.238;2022-07-29T09:48:23;4.82;;;3.55;;
21822;SDS011;11074;48.596;9.238;2022-07-29T09:50:50;5.38;;;3.70;;
21822;SDS011;11074;48.596;9.238;2022-07-29T09:53:29;5.10;;;3.80;;
21822;SDS011;11074;48.596;9.238;2022-07-29T09:56:05;4.55;;;3.50;;
21822;SDS011;11074;48.596;9.238;2022-07-29T09:58:31;6.63;;;4.45;;
21822;SDS011;11074;48.596;9.238;2022-07-29T10:01:00;4.82;;;4.30;;
21822;SDS011;11074;48.596;9.238;2022-07-29T10:03:28;7.88;;;4.13;;
21822;SDS011;11074;48.596;9.238;2022-07-29T10:06:06;6.40;;;4.30;;
21822;SDS011;11074;48.596;9.238;2022-07-29T10:08:35;7.00;;;4.78;;
21822;SDS011;11074;48.596;9.238;2022-07-29T10:11:09;5.93;;;4.50;;
21822;SDS011;11074;48.596;9.238;2022-07-29T10:13:42;5.47;;;4.80;;
21822;SDS011;11074;48.596;9.238;2022-07-29T10:16:10;4.93;;;4.03;;
21822;SDS011;11074;48.596;9.238;2022-07-29T10:18:38;7.60;;;4.40;;
21822;SDS011;11074;48.596;9.238;2022-07-29T10:21:05;4.25;;;3.85;;
21822;SDS011;11074;48.596;9.238;2022-07-29T10:23:32;5.25;;;3.97;;
21822;SDS011;11074;48.596;9.238;2022-07-29T10:26:00;4.85;;;3.50;;
21822;SDS011;11074;48.596;9.238;2022-07-29T10:28:28;5.40;;;4.20;;
21822;SDS011;11074;48.596;9.238;2022-07-29T10:30:59;6.50;;;4.30;;
21822;SDS011;11074;48.596;9.238;2022-07-29T10:36:24;6.53;;;4.55;;
21822;SDS011;11074;48.596;9.238;2022-07-29T10:39:39;5.05;;;4.43;;
21822;SDS011;11074;48.596;9.238;2022-07-29T10:42:25;4.00;;;3.15;;
21822;SDS011;11074;48.596;9.238;2022-07-29T10:44:54;3.58;;;3.28;;
21822;SDS011;11074;48.596;9.238;2022-07-29T10:50:02;3.83;;;3.10;;
21822;SDS011;11074;48.596;9.238;2022-07-29T10:58:10;6.00;;;3.70;;
21822;SDS011;11074;48.596;9.238;2022-07-29T11:00:41;4.50;;;3.92;;
21822;SDS011;11074;48.596;9.238;2022-07-29T11:03:07;4.63;;;3.55;;
21822;SDS011;11074;48.596;9.238;2022-07-29T11:08:22;5.05;;;3.83;;
21822;SDS011;11074;48.596;9.238;2022-07-29T11:10:50;10.40;;;3.97;;
21822;SDS011;11074;48.596;9.238;2022-07-29T11:16:11;6.70;;;3.95;;
21822;SDS011;11074;48.596;9.238;2022-07-29T11:21:38;5.18;;;3.70;;
21822;SDS011;11074;48.596;9.238;2022-07-29T11:24:12;4.72;;;3.50;;
21822;SDS011;11074;48.596;9.238;2022-07-29T11:26:41;3.97;;;3.58;;
21822;SDS011;11074;48.596;9.238;2022-07-29T11:31:51;6.60;;;4.03;;
21822;SDS011;11074;48.596;9.238;2022-07-29T11:39:31;7.88;;;4.15;;
21822;SDS011;11074;48.596;9.238;2022-07-29T11:44:55;7.13;;;4.43;;
21822;SDS011;11074;48.596;9.238;2022-07-29T11:47:25;5.38;;;4.13;;
21822;SDS011;11074;48.596;9.238;2022-07-29T11:49:53;7.25;;;4.13;;
21822;SDS011;11074;48.596;9.238;2022-07-29T11:52:31;4.78;;;3.95;;
21822;SDS011;11074;48.596;9.238;2022-07-29T11:55:13;5.88;;;3.88;;
21822;SDS011;11074;48.596;9.238;2022-07-29T11:57:45;4.03;;;3.13;;
21822;SDS011;11074;48.596;9.238;2022-07-29T12:00:28;6.47;;;2.90;;
21822;SDS011;11074;48.596;9.238;2022-07-29T12:05:45;5.90;;;2.83;;
21822;SDS011;11074;48.596;9.238;2022-07-29T12:08:18;4.83;;;3.13;;
21822;SDS011;11074;48.596;9.238;2022-07-29T12:10:47;5.45;;;2.80;;
21822;SDS011;11074;48.596;9.238;2022-07-29T12:13:16;5.00;;;2.75;;
21822;SDS011;11074;48.596;9.238;2022-07-29T12:15:54;5.60;;;2.83;;
21822;SDS011;11074;48.596;9.238;2022-07-29T12:18:23;5.55;;;3.05;;
21822;SDS011;11074;48.596;9.238;2022-07-29T12:20:56;4.95;;;2.97;;
21822;SDS011;11074;48.596;9.238;2022-07-29T12:23:30;4.38;;;2.97;;
21822;SDS011;11074;48.596;9.238;2022-07-29T12:25:57;5.63;;;2.95;;
21822;SDS011;11074;48.596;9.238;2022-07-29T12:28:24;3.47;;;2.63;;
21822;SDS011;11074;48.596;9.238;2022-07-29T12:30:50;4.43;;;3.20;;
21822;SDS011;11074;48.596;9.238;2022-07-29T12:33:27;3.60;;;3.22;;
21822;SDS011;11074;48.596;9.238;2022-07-29T12:35:55;4.88;;;3.17;;
21822;SDS011;11074;48.596;9.238;2022-07-29T12:38:26;3.55;;;3.10;;
21822;SDS011;11074;48.596;9.238;2022-07-29T12:40:53;4.18;;;2.40;;
21822;SDS011;11074;48.596;9.238;2022-07-29T12:43:20;4.07;;;2.97;;
21822;SDS011;11074;48.596;9.238;2022-07-29T12:45:49;5.38;;;3.30;;
21822;SDS011;11074;48.596;9.238;2022-07-29T12:48:38;6.50;;;3.33;;
21822;SDS011;11074;48.596;9.238;2022-07-29T12:51:06;6.60;;;3.58;;
21822;SDS011;11074;48.596;9.238;2022-07-29T12:53:35;4.35;;;3.47;;
21822;SDS011;11074;48.596;9.238;2022-07-29T12:56:01;5.05;;;3.38;;
21822;SDS011;11074;48.596;9.238;2022-07-29T12:58:30;4.97;;;3.50;;
21822;SDS011;11074;48.596;9.238;2022-07-29T13:03:47;4.20;;;3.70;;
21822;SDS011;11074;48.596;9.238;2022-07-29T13:09:10;4.53;;;3.80;;
21822;SDS011;11074;48.596;9.238;2022-07-29T13:11:42;5.80;;;3.63;;
21822;SDS011;11074;48.596;9.238;2022-07-29T13:14:36;5.60;;;3.45;;
21822;SDS011;11074;48.596;9.238;2022-07-29T13:17:04;5.28;;;2.95;;
21822;SDS011;11074;48.596;9.238;2022-07-29T13:19:40;4.22;;;2.92;;
21822;SDS011;11074;48.596;9.238;2022-07-29T13:22:16;4.75;;;3.20;;
21822;SDS011;11074;48.596;9.238;2022-07-29T13:24:55;4.53;;;3.30;;
21822;SDS011;11074;48.596;9.238;2022-07-29T13:27:31;4.55;;;3.13;;
21822;SDS011;11074;48.596;9.238;2022-07-29T13:30:02;4.90;;;3.47;;
21822;SDS011;11074;48.596;9.238;2022-07-29T13:32:31;5.32;;;3.42;;
21822;SDS011;11074;48.596;9.238;2022-07-29T13:34:59;4.30;;;3.40;;
21822;SDS011;11074;48.596;9.238;2022-07-29T13:37:28;4.82;;;3.60;;
21822;SDS011;11074;48.596;9.238;2022-07-29T13:39:55;5.35;;;4.13;;
21822;SDS011;11074;48.596;9.238;2022-07-29T13:42:22;5.45;;;3.90;;
21822;SDS011;11074;48.596;9.238;2022-07-29T13:44:49;6.55;;;4.20;;
21822;SDS011;11074;48.596;9.238;2022-07-29T13:47:16;6.55;;;4.40;;
21822;SDS011;11074;48.596;9.238;2022-07-29T13:49:46;6.22;;;4.55;;
21822;SDS011;11074;48.596;9.238;2022-07-29T13:52:13;8.60;;;5.30;;
21822;SDS011;11074;48.596;9.238;2022-07-29T13:54:39;8.07;;;5.00;;
21822;SDS011;11074;48.596;9.238;2022-07-29T13:57:05;6.28;;;4.68;;
21822;SDS011;11074;48.596;9.238;2022-07-29T13:59:30;7.10;;;4.55;;
21822;SDS011;11074;48.596;9.238;2022-07-29T14:01:56;7.70;;;5.13;;
21822;SDS011;11074;48.596;9.238;2022-07-29T14:04:22;7.70;;;5.55;;
21822;SDS011;11074;48.596;9.238;2022-07-29T14:06:49;7.20;;;5.20;;
21822;SDS011;11074;48.596;9.238;2022-07-29T14:09:15;7.50;;;5.75;;
21822;SDS011;11074;48.596;9.238;2022-07-29T14:11:41;5.82;;;5.10;;
21822;SDS011;11074;48.596;9.238;2022-07-29T14:14:06;8.18;;;5.65;;
21822;SDS011;11074;48.596;9.238;2022-07-29T14:16:32;5.88;;;5.07;;
21822;SDS011;11074;48.596;9.238;2022-07-29T14:18:58;7.38;;;5.65;;
21822;SDS011;11074;48.596;9.238;2022-07-29T14:21:24;7.95;;;6.32;;
21822;SDS011;11074;48.596;9.238;2022-07-29T14:23:50;6.57;;;5.78;;
21822;SDS011;11074;48.596;9.238;2022-07-29T14:26:18;8.10;;;5.38;;
21822;SDS011;11074;48.596;9.238;2022-07-29T14:28:44;6.05;;;4.80;;
21822;SDS011;11074;48.596;9.238;2022-07-29T14:31:10;6.40;;;4.68;;
21822;SDS011;11074;48.596;9.238;2022-07-29T14:33:35;6.18;;;4.25;;
21822;SDS011;11074;48.596;9.238;2022-07-29T14:36:02;6.13;;;4.25;;
21822;SDS011;11074;48.596;9.238;2022-07-29T14:38:28;5.97;;;5.03;;
21822;SDS011;11074;48.596;9.238;2022-07-29T14:40:54;8.20;;;4.65;;
21822;SDS011;11074;48.596;9.238;2022-07-29T14:43:19;6.80;;;4.38;;
21822;SDS011;11074;48.596;9.238;2022-07-29T14:45:45;8.60;;;5.20;;
21822;SDS011;11074;48.596;9.238;2022-07-29T14:48:11;7.72;;;5.40;;
21822;SDS011;11074;48.596;9.238;2022-07-29T14:50:37;7.18;;;5.00;;
21822;SDS011;11074;48.596;9.238;2022-07-29T14:53:03;10.32;;;5.72;;
21822;SDS011;11074;48.596;9.238;2022-07-29T14:55:28;7.90;;;5.30;;
21822;SDS011;11074;48.596;9.238;2022-07-29T14:57:55;8.68;;;5.25;;
21822;SDS011;11074;48.596;9.238;2022-07-29T15:00:21;8.35;;;5.80;;
21822;SDS011;11074;48.596;9.238;2022-07-29T15:02:47;6.65;;;4.85;;
21822;SDS011;11074;48.596;9.238;2022-07-29T15:05:14;6.90;;;5.25;;
21822;SDS011;11074;48.596;9.238;2022-07-29T15:07:40;7.28;;;4.75;;
21822;SDS011;11074;48.596;9.238;2022-07-29T15:10:06;7.15;;;4.70;;
21822;SDS011;11074;48.596;9.238;2022-07-29T15:12:32;5.25;;;4.68;;
21822;SDS011;11074;48.596;9.238;2022-07-29T15:14:58;6.88;;;5.05;;
21822;SDS011;11074;48.596;9.238;2022-07-29T15:17:24;6.50;;;4.65;;
21822;SDS011;11074;48.596;9.238;2022-07-29T15:19:50;6.85;;;4.03;;
21822;SDS011;11074;48.596;9.238;2022-07-29T15:22:16;7.50;;;4.35;;
21822;SDS011;11074;48.596;9.238;2022-07-29T15:24:42;6.80;;;4.60;;
21822;SDS011;11074;48.596;9.238;2022-07-29T15:27:08;5.32;;;4.22;;
21822;SDS011;11074;48.596;9.238;2022-07-29T15:29:38;6.97;;;4.57;;
21822;SDS011;11074;48.596;9.238;2022-07-29T15:32:09;7.53;;;4.30;;
21822;SDS011;11074;48.596;9.238;2022-07-29T15:34:36;5.18;;;4.25;;
21822;SDS011;11074;48.596;9.238;2022-07-29T15:37:03;5.20;;;3.92;;
21822;SDS011;11074;48.596;9.238;2022-07-29T15:39:30;6.68;;;4.18;;
21822;SDS011;11074;48.596;9.238;2022-07-29T15:41:55;6.85;;;4.10;;
21822;SDS011;11074;48.596;9.238;2022-07-29T15:44:21;6.40;;;3.60;;
21822;SDS011;11074;48.596;9.238;2022-07-29T15:46:47;5.68;;;3.70;;
21822;SDS011;11074;48.596;9.238;2022-07-29T15:49:33;5.25;;;3.78;;